Time;durP1;ratioP1;P1;durP2;ratioP2;P2;SDS_P1;SDS_P2;PMS_P1;PMS_P2;Temp;Humidity;BMP_temperature;BMP_pressure;BME280_temperature;BME280_humidity;BME280_pressure;Samples;Min_cycle;Max_cycle;Signal;HPM_P1;HPM_P2
2023/07/06 00:00:23;;;;;;;59.85;25.33;;;;;;;;;;10447640;28;20110;-79
2023/07/06 00:05:24;;;;;;;28.00;18.20;;;;;;;;;;10448887;28;20021;-80
2023/07/06 00:10:25;;;;;;;37.25;22.90;;;;;;;;;;10441188;28;20535;-82
2023/07/06 00:15:27;;;;;;;38.28;25.85;;;;;;;;;;10447500;28;20047;-81
2023/07/06 00:20:28;;;;;;;97.57;36.88;;;;;;;;;;10447460;28;20053;-80
2023/07/06 00:25:29;;;;;;;47.97;25.10;;;;;;;;;;10446322;28;20025;-80
2023/07/06 00:35:48;;;;;;;32.38;15.57;;;;;;;;;;10446459;28;20040;-81
2023/07/06 00:40:50;;;;;;;29.63;16.60;;;;;;;;;;10446974;28;20060;-82
2023/07/06 00:45:53;;;;;;;35.70;17.55;;;;;;;;;;10446202;28;20035;-82
2023/07/06 00:50:55;;;;;;;33.97;20.55;;;;;;;;;;10446096;28;20033;-82
2023/07/06 00:55:58;;;;;;;28.02;18.35;;;;;;;;;;10446053;28;20029;-80
2023/07/06 01:01:00;;;;;;;40.80;22.80;;;;;;;;;;10445546;28;20041;-81
2023/07/06 01:06:03;;;;;;;36.03;21.55;;;;;;;;;;10446081;28;20033;-82
2023/07/06 01:11:04;;;;;;;43.75;25.27;;;;;;;;;;10445012;28;20045;-82
2023/07/06 01:16:08;;;;;;;47.03;26.30;;;;;;;;;;10445753;28;20439;-79
2023/07/06 01:21:09;;;;;;;39.05;23.02;;;;;;;;;;10445159;28;20056;-79
2023/07/06 01:26:10;;;;;;;31.20;19.35;;;;;;;;;;10444748;28;20032;-80
2023/07/06 01:31:21;;;;;;;36.03;22.10;;;;;;;;;;10444885;28;20396;-80
2023/07/06 01:36:34;;;;;;;36.55;22.00;;;;;;;;;;10444561;28;20422;-80
2023/07/06 01:41:35;;;;;;;37.65;22.98;;;;;;;;;;10444969;28;20090;-82
2023/07/06 01:46:36;;;;;;;36.55;21.08;;;;;;;;;;10444922;28;20110;-80
2023/07/06 01:51:42;;;;;;;31.40;19.17;;;;;;;;;;10444243;28;20484;-80
2023/07/06 01:56:48;;;;;;;24.88;14.48;;;;;;;;;;10445616;28;20036;-81
2023/07/06 02:01:52;;;;;;;23.02;13.43;;;;;;;;;;10444170;28;20078;-81
2023/07/06 02:06:53;;;;;;;22.00;12.25;;;;;;;;;;10443787;28;20025;-81
2023/07/06 02:11:55;;;;;;;19.15;11.93;;;;;;;;;;10449190;28;20045;-80
2023/07/06 02:16:55;;;;;;;16.98;9.88;;;;;;;;;;10452800;28;20061;-79
2023/07/06 02:21:56;;;;;;;15.65;9.48;;;;;;;;;;10451095;28;20044;-80
2023/07/06 02:26:58;;;;;;;15.40;8.77;;;;;;;;;;10452211;28;20068;-81
2023/07/06 02:31:59;;;;;;;14.90;7.93;;;;;;;;;;10451834;28;20036;-80
2023/07/06 02:37:00;;;;;;;15.65;6.45;;;;;;;;;;10451470;28;20037;-83
2023/07/06 02:42:01;;;;;;;16.02;7.03;;;;;;;;;;10451538;28;20086;-82
2023/07/06 02:47:02;;;;;;;15.10;6.68;;;;;;;;;;10451087;28;20037;-80
2023/07/06 02:52:03;;;;;;;10.82;7.07;;;;;;;;;;10450712;28;20039;-80
2023/07/06 02:57:04;;;;;;;12.95;6.80;;;;;;;;;;10451223;28;20130;-80
2023/07/06 03:02:06;;;;;;;14.45;7.20;;;;;;;;;;10451437;28;20048;-81
2023/07/06 03:07:08;;;;;;;14.35;7.70;;;;;;;;;;10453292;28;20060;-81
2023/07/06 03:12:10;;;;;;;14.05;7.25;;;;;;;;;;10453883;28;20064;-80
2023/07/06 03:17:10;;;;;;;14.98;7.32;;;;;;;;;;10454053;28;20469;-81
2023/07/06 03:22:11;;;;;;;12.98;6.07;;;;;;;;;;10452001;28;20049;-81
2023/07/06 03:27:12;;;;;;;13.20;7.30;;;;;;;;;;10453462;28;20021;-80
2023/07/06 03:32:14;;;;;;;10.27;6.07;;;;;;;;;;10455233;28;20048;-80
2023/07/06 03:37:18;;;;;;;17.40;7.22;;;;;;;;;;10453620;28;20036;-82
2023/07/06 03:42:19;;;;;;;14.93;7.25;;;;;;;;;;10453166;28;20033;-80
2023/07/06 03:47:21;;;;;;;13.50;6.57;;;;;;;;;;10452179;28;20053;-80
2023/07/06 03:52:22;;;;;;;9.77;5.60;;;;;;;;;;10452712;28;20036;-81
2023/07/06 03:57:23;;;;;;;11.52;5.70;;;;;;;;;;10453341;28;20124;-81
2023/07/06 04:02:24;;;;;;;11.35;6.22;;;;;;;;;;10451412;28;20485;-81
2023/07/06 04:07:25;;;;;;;12.43;6.38;;;;;;;;;;10452392;28;20037;-82
2023/07/06 04:12:27;;;;;;;12.95;6.13;;;;;;;;;;10452267;28;20778;-82
2023/07/06 04:17:27;;;;;;;10.35;5.43;;;;;;;;;;10452483;28;20127;-81
2023/07/06 04:22:28;;;;;;;8.93;4.85;;;;;;;;;;10450970;28;20094;-80
2023/07/06 04:27:29;;;;;;;10.50;5.53;;;;;;;;;;10450375;28;20037;-79
2023/07/06 04:32:31;;;;;;;8.48;4.90;;;;;;;;;;10450370;28;20033;-81
2023/07/06 04:37:32;;;;;;;12.35;4.82;;;;;;;;;;10450603;28;20086;-82
2023/07/06 04:42:33;;;;;;;8.30;4.63;;;;;;;;;;10450412;28;20073;-81
2023/07/06 04:47:35;;;;;;;6.85;4.32;;;;;;;;;;10458532;28;20131;-81
2023/07/06 04:52:39;;;;;;;10.00;5.40;;;;;;;;;;10447882;28;20354;-81
2023/07/06 04:57:42;;;;;;;7.38;4.25;;;;;;;;;;10450485;28;20078;-83
2023/07/06 05:02:43;;;;;;;11.48;5.13;;;;;;;;;;10450623;28;20072;-82
2023/07/06 05:07:45;;;;;;;11.15;4.88;;;;;;;;;;10449616;28;20169;-81
2023/07/06 05:12:47;;;;;;;7.45;4.15;;;;;;;;;;10450393;28;20112;-82
2023/07/06 05:17:48;;;;;;;6.03;3.83;;;;;;;;;;10447385;28;20029;-81
2023/07/06 05:22:49;;;;;;;5.90;2.92;;;;;;;;;;10448968;28;20049;-82
2023/07/06 05:27:50;;;;;;;6.10;3.70;;;;;;;;;;10454257;28;20477;-81
2023/07/06 05:32:52;;;;;;;5.88;4.18;;;;;;;;;;10441478;28;20799;-81
2023/07/06 05:37:54;;;;;;;5.85;3.53;;;;;;;;;;10439072;28;20039;-82
2023/07/06 05:42:55;;;;;;;7.68;4.35;;;;;;;;;;10443067;28;20044;-82
2023/07/06 05:47:56;;;;;;;9.80;4.20;;;;;;;;;;10447466;28;20029;-82
2023/07/06 05:52:58;;;;;;;8.18;4.63;;;;;;;;;;10441246;28;20036;-83
2023/07/06 05:57:59;;;;;;;6.35;3.55;;;;;;;;;;10449478;28;20476;-83
2023/07/06 06:03:01;;;;;;;6.25;4.47;;;;;;;;;;10449756;28;20128;-84
2023/07/06 06:08:02;;;;;;;5.75;3.75;;;;;;;;;;10447910;28;20037;-83
2023/07/06 06:13:03;;;;;;;6.82;3.85;;;;;;;;;;10441043;28;20033;-88
2023/07/06 06:18:05;;;;;;;7.85;3.88;;;;;;;;;;10437221;28;20039;-90
2023/07/06 06:23:07;;;;;;;9.13;3.55;;;;;;;;;;10446098;28;20848;-88
2023/07/06 06:28:09;;;;;;;7.07;3.55;;;;;;;;;;10446475;28;20029;-90
2023/07/06 06:33:10;;;;;;;5.68;3.38;;;;;;;;;;10446695;28;20028;-90
2023/07/06 06:43:38;;;;;;;5.25;3.20;;;;;;;;;;10446845;28;20037;-91
2023/07/06 06:48:39;;;;;;;6.47;3.60;;;;;;;;;;10445511;28;20036;-88
2023/07/06 06:53:40;;;;;;;9.00;3.80;;;;;;;;;;10446854;28;20040;-88
2023/07/06 06:58:41;;;;;;;7.28;3.75;;;;;;;;;;10452971;28;20032;-89
2023/07/06 07:03:42;;;;;;;4.13;3.13;;;;;;;;;;10452432;28;20761;-89
2023/07/06 07:08:50;;;;;;;8.48;3.78;;;;;;;;;;10454976;28;20271;-89
2023/07/06 07:13:52;;;;;;;11.25;4.13;;;;;;;;;;10453103;28;20040;-89
2023/07/06 07:18:54;;;;;;;8.07;3.70;;;;;;;;;;10453005;28;20024;-88
2023/07/06 07:23:55;;;;;;;6.50;3.47;;;;;;;;;;10453509;28;20080;-88
2023/07/06 07:28:56;;;;;;;7.38;3.60;;;;;;;;;;10453970;28;20508;-87
2023/07/06 07:33:57;;;;;;;4.82;3.15;;;;;;;;;;10452805;28;20400;-85
2023/07/06 07:38:59;;;;;;;6.55;3.50;;;;;;;;;;10453872;28;20465;-89
2023/07/06 07:44:01;;;;;;;4.53;3.40;;;;;;;;;;10452567;28;20049;-89
2023/07/06 07:49:02;;;;;;;6.38;3.47;;;;;;;;;;10452082;28;20033;-87
2023/07/06 07:54:03;;;;;;;5.43;3.10;;;;;;;;;;10452449;28;20029;-88
2023/07/06 07:59:04;;;;;;;4.75;3.08;;;;;;;;;;10451229;28;20621;-88
2023/07/06 08:04:05;;;;;;;6.00;3.75;;;;;;;;;;10439087;28;20049;-89
2023/07/06 08:09:08;;;;;;;6.80;3.03;;;;;;;;;;10411599;28;20554;-87
2023/07/06 08:14:09;;;;;;;7.28;3.05;;;;;;;;;;10453190;28;20044;-88
2023/07/06 08:19:12;;;;;;;3.72;2.80;;;;;;;;;;10450664;28;20068;-88
2023/07/06 08:24:12;;;;;;;6.35;3.10;;;;;;;;;;10452822;28;20037;-88
2023/07/06 08:29:13;;;;;;;5.30;2.47;;;;;;;;;;10450273;28;20078;-87
2023/07/06 08:34:16;;;;;;;5.40;3.00;;;;;;;;;;10449956;28;20503;-88
2023/07/06 08:39:17;;;;;;;3.75;2.50;;;;;;;;;;10445172;28;20041;-88
2023/07/06 08:44:20;;;;;;;4.70;2.95;;;;;;;;;;10441873;28;20051;-87
2023/07/06 08:49:26;;;;;;;9.18;2.17;;;;;;;;;;10449435;28;20115;-87
2023/07/06 08:54:27;;;;;;;;;;;;;;;;;;10449373;28;20032;-88
2023/07/06 08:59:40;;;;;;;7.20;2.22;;;;;;;;;;10448726;28;20378;-87
2023/07/06 09:04:41;;;;;;;3.90;2.47;;;;;;;;;;10449037;28;20033;-88
2023/07/06 09:09:43;;;;;;;7.38;3.00;;;;;;;;;;10463431;28;20743;-87
2023/07/06 09:14:46;;;;;;;6.15;2.80;;;;;;;;;;10447985;28;20035;-87
2023/07/06 09:19:47;;;;;;;3.47;2.17;;;;;;;;;;10448997;28;20354;-87
2023/07/06 09:24:48;;;;;;;2.85;2.10;;;;;;;;;;10446086;28;20080;-87
2023/07/06 09:29:57;;;;;;;2.67;2.15;;;;;;;;;;10446647;28;20033;-85
2023/07/06 09:35:02;;;;;;;3.88;2.30;;;;;;;;;;10447512;28;20522;-85
2023/07/06 09:40:05;;;;;;;3.72;2.28;;;;;;;;;;10446150;28;20040;-86
2023/07/06 09:45:19;;;;;;;4.78;2.38;;;;;;;;;;10438130;28;20531;-87
2023/07/06 09:50:27;;;;;;;3.97;2.45;;;;;;;;;;10447509;28;20432;-87
2023/07/06 09:55:31;;;;;;;3.63;2.30;;;;;;;;;;10447470;28;20040;-87
2023/07/06 10:00:36;;;;;;;3.03;1.90;;;;;;;;;;10444941;28;20710;-87
2023/07/06 10:05:51;;;;;;;3.75;2.25;;;;;;;;;;10446426;28;20040;-87
2023/07/06 10:10:55;;;;;;;6.83;2.30;;;;;;;;;;10444206;28;20053;-87
2023/07/06 10:15:56;;;;;;;5.10;2.70;;;;;;;;;;10447198;28;20033;-87
2023/07/06 10:21:04;;;;;;;3.20;2.40;;;;;;;;;;10447191;28;20067;-89
2023/07/06 10:26:19;;;;;;;7.72;2.83;;;;;;;;;;10445316;28;20035;-88
2023/07/06 10:31:25;;;;;;;3.95;3.03;;;;;;;;;;10447954;28;20069;-86
2023/07/06 10:36:32;;;;;;;4.13;2.20;;;;;;;;;;10452628;28;20094;-88
2023/07/06 10:41:34;;;;;;;4.72;2.45;;;;;;;;;;10454230;28;20124;-87
2023/07/06 10:46:36;;;;;;;5.85;3.28;;;;;;;;;;10453907;28;20032;-87
2023/07/06 10:51:46;;;;;;;8.43;4.05;;;;;;;;;;10452785;28;20025;-88
2023/07/06 10:57:01;;;;;;;8.80;3.63;;;;;;;;;;10452832;28;20112;-86
2023/07/06 11:02:20;;;;;;;6.07;3.13;;;;;;;;;;10452464;28;20404;-88
2023/07/06 11:07:38;;;;;;;5.70;3.13;;;;;;;;;;10452411;28;20033;-87
2023/07/06 11:12:52;;;;;;;4.57;2.75;;;;;;;;;;10454047;28;20029;-86
2023/07/06 11:17:55;;;;;;;5.85;3.30;;;;;;;;;;10453352;28;20029;-87
2023/07/06 11:22:59;;;;;;;5.90;2.97;;;;;;;;;;10453977;28;20033;-87
2023/07/06 11:28:05;;;;;;;6.10;3.00;;;;;;;;;;10452538;28;20369;-88
2023/07/06 11:33:10;;;;;;;6.50;2.40;;;;;;;;;;10451908;28;20040;-88
2023/07/06 11:38:14;;;;;;;5.75;2.22;;;;;;;;;;10451241;28;20475;-85
2023/07/06 11:43:15;;;;;;;3.47;2.15;;;;;;;;;;10454066;28;20051;-87
2023/07/06 11:48:16;;;;;;;4.95;2.58;;;;;;;;;;10451930;28;20037;-87
2023/07/06 11:53:42;;;;;;;3.67;2.28;;;;;;;;;;10451483;28;20029;-86
2023/07/06 11:58:43;;;;;;;3.58;2.35;;;;;;;;;;10452010;28;20522;-86
2023/07/06 12:03:45;;;;;;;4.50;2.72;;;;;;;;;;10452602;28;20028;-87
2023/07/06 12:08:46;;;;;;;4.78;2.45;;;;;;;;;;10449624;28;20064;-86
2023/07/06 12:13:52;;;;;;;5.18;2.55;;;;;;;;;;10451721;28;20035;-85
2023/07/06 12:19:01;;;;;;;6.20;2.50;;;;;;;;;;10451498;28;20025;-85
2023/07/06 12:24:03;;;;;;;3.15;2.47;;;;;;;;;;10450836;28;20036;-85
2023/07/06 12:29:04;;;;;;;4.85;2.70;;;;;;;;;;10451511;28;20598;-85
2023/07/06 12:34:06;;;;;;;4.88;3.25;;;;;;;;;;10448851;28;20107;-85
2023/07/06 12:39:09;;;;;;;5.18;3.70;;;;;;;;;;10448359;28;20039;-85
2023/07/06 12:44:17;;;;;;;7.55;4.03;;;;;;;;;;10448160;28;20037;-85
2023/07/06 12:49:22;;;;;;;6.43;4.07;;;;;;;;;;10449464;28;20035;-86
2023/07/06 12:54:29;;;;;;;5.32;3.78;;;;;;;;;;10447909;28;20040;-85
2023/07/06 12:59:32;;;;;;;6.20;3.50;;;;;;;;;;10450132;28;20037;-87
2023/07/06 13:04:43;;;;;;;4.72;3.28;;;;;;;;;;10449351;28;20033;-88
2023/07/06 13:09:45;;;;;;;8.15;4.00;;;;;;;;;;10448990;28;20055;-86
2023/07/06 13:14:47;;;;;;;5.80;3.67;;;;;;;;;;10449134;28;20036;-86
2023/07/06 13:19:48;;;;;;;5.78;3.80;;;;;;;;;;10450424;28;20071;-86
2023/07/06 13:24:49;;;;;;;4.75;3.42;;;;;;;;;;10448514;28;20029;-87
2023/07/06 13:29:50;;;;;;;6.30;3.90;;;;;;;;;;10448471;28;20060;-88
2023/07/06 13:34:51;;;;;;;6.28;3.70;;;;;;;;;;10446463;28;20078;-88
2023/07/06 13:39:52;;;;;;;4.28;3.35;;;;;;;;;;10448198;28;20021;-89
2023/07/06 13:44:53;;;;;;;5.28;3.45;;;;;;;;;;10447755;28;20036;-87
2023/07/06 13:49:56;;;;;;;5.45;3.28;;;;;;;;;;10448089;28;20098;-87
2023/07/06 13:54:57;;;;;;;4.80;2.97;;;;;;;;;;10447713;28;20506;-86
2023/07/06 13:59:59;;;;;;;4.45;3.15;;;;;;;;;;10447328;28;20033;-86
2023/07/06 14:05:00;;;;;;;6.20;2.92;;;;;;;;;;10448321;28;20036;-88
2023/07/06 14:10:01;;;;;;;5.22;2.92;;;;;;;;;;10454747;28;20406;-86
2023/07/06 14:15:03;;;;;;;3.92;2.83;;;;;;;;;;10456157;28;20114;-86
2023/07/06 14:20:04;;;;;;;5.07;3.20;;;;;;;;;;10455913;28;20033;-86
2023/07/06 14:25:14;;;;;;;8.05;3.58;;;;;;;;;;10455370;28;20044;-87
2023/07/06 14:30:17;;;;;;;5.90;3.45;;;;;;;;;;10454951;28;20025;-87
2023/07/06 14:35:18;;;;;;;4.20;3.05;;;;;;;;;;10454726;28;20043;-86
2023/07/06 14:40:19;;;;;;;6.90;3.53;;;;;;;;;;10454872;28;20072;-87
2023/07/06 14:45:21;;;;;;;6.53;3.60;;;;;;;;;;10452968;28;20037;-86
2023/07/06 14:50:23;;;;;;;5.78;3.70;;;;;;;;;;10453299;28;20037;-87
2023/07/06 14:55:26;;;;;;;6.18;3.70;;;;;;;;;;10451714;28;20029;-89
2023/07/06 15:00:27;;;;;;;7.53;3.70;;;;;;;;;;10453407;28;20167;-89
2023/07/06 15:05:28;;;;;;;5.47;3.38;;;;;;;;;;10452194;28;20438;-89
2023/07/06 15:10:30;;;;;;;4.35;3.13;;;;;;;;;;10453079;28;20047;-88
2023/07/06 15:15:31;;;;;;;6.25;3.45;;;;;;;;;;10449888;28;20033;-89
2023/07/06 15:20:34;;;;;;;6.28;3.13;;;;;;;;;;10453732;28;20037;-87
2023/07/06 15:25:35;;;;;;;7.53;3.33;;;;;;;;;;10452450;28;20032;-89
2023/07/06 15:30:36;;;;;;;6.70;3.78;;;;;;;;;;10452679;28;20037;-89
2023/07/06 15:35:37;;;;;;;8.00;3.78;;;;;;;;;;10458891;28;20021;-84
2023/07/06 15:40:44;;;;;;;5.22;3.33;;;;;;;;;;10451131;28;20500;-87
2023/07/06 15:45:45;;;;;;;5.20;3.22;;;;;;;;;;10452305;28;20032;-85
2023/07/06 15:50:46;;;;;;;7.75;3.13;;;;;;;;;;10449846;28;20060;-85
2023/07/06 15:55:47;;;;;;;4.28;3.00;;;;;;;;;;10453007;28;20075;-86
2023/07/06 16:00:52;;;;;;;6.00;3.58;;;;;;;;;;10465175;28;20036;-85
2023/07/06 16:05:53;;;;;;;5.60;3.67;;;;;;;;;;10454883;28;20138;-86
2023/07/06 16:10:54;;;;;;;4.35;3.08;;;;;;;;;;10448859;28;20060;-87
2023/07/06 16:15:55;;;;;;;4.38;3.20;;;;;;;;;;10450278;28;20503;-88
2023/07/06 16:21:01;;;;;;;4.90;3.45;;;;;;;;;;10447185;28;20068;-87
2023/07/06 16:26:08;;;;;;;6.22;3.35;;;;;;;;;;10451213;28;20029;-87
2023/07/06 16:31:09;;;;;;;5.72;3.70;;;;;;;;;;10447841;28;20090;-89
2023/07/06 16:36:11;;;;;;;5.28;3.20;;;;;;;;;;10450046;28;20613;-88
2023/07/06 16:41:13;;;;;;;6.78;4.22;;;;;;;;;;10448614;28;20033;-85
2023/07/06 16:46:14;;;;;;;5.15;3.60;;;;;;;;;;10449245;28;20036;-88
2023/07/06 16:51:15;;;;;;;4.65;3.33;;;;;;;;;;10448638;28;20068;-87
2023/07/06 16:56:16;;;;;;;5.10;3.17;;;;;;;;;;10448883;28;20066;-87
2023/07/06 17:01:17;;;;;;;7.30;3.40;;;;;;;;;;10448316;28;20029;-87
2023/07/06 17:06:18;;;;;;;7.35;3.88;;;;;;;;;;10452598;28;20035;-86
2023/07/06 17:11:19;;;;;;;6.13;3.55;;;;;;;;;;10450186;28;20132;-87
2023/07/06 17:16:20;;;;;;;6.93;3.75;;;;;;;;;;10448230;28;20032;-88
2023/07/06 17:21:21;;;;;;;6.07;3.60;;;;;;;;;;10446510;28;20041;-89
2023/07/06 17:26:22;;;;;;;4.88;3.50;;;;;;;;;;10444954;28;20173;-87
2023/07/06 17:31:23;;;;;;;7.30;3.67;;;;;;;;;;10446626;28;20749;-87
2023/07/06 17:36:24;;;;;;;4.90;3.60;;;;;;;;;;10446514;28;20056;-88
2023/07/06 17:41:25;;;;;;;6.75;3.80;;;;;;;;;;10445539;28;20106;-89
2023/07/06 17:46:26;;;;;;;6.70;3.60;;;;;;;;;;10445738;28;20044;-87
2023/07/06 17:51:27;;;;;;;6.88;3.67;;;;;;;;;;10446824;28;20033;-88
2023/07/06 17:56:28;;;;;;;6.47;3.97;;;;;;;;;;10447652;28;20385;-88
2023/07/06 18:01:29;;;;;;;6.22;3.72;;;;;;;;;;10444931;28;20326;-83
2023/07/06 18:06:30;;;;;;;6.28;3.88;;;;;;;;;;10445689;28;20496;-82
2023/07/06 18:11:31;;;;;;;6.38;3.55;;;;;;;;;;10446090;28;20055;-82
2023/07/06 18:16:32;;;;;;;8.75;3.60;;;;;;;;;;10446605;28;20040;-82
2023/07/06 18:21:33;;;;;;;5.85;3.28;;;;;;;;;;10447039;28;20611;-82
2023/07/06 18:26:34;;;;;;;6.45;3.28;;;;;;;;;;10445916;28;20025;-83
2023/07/06 18:31:35;;;;;;;6.90;3.90;;;;;;;;;;10445794;28;20037;-83
2023/07/06 18:36:36;;;;;;;8.15;3.97;;;;;;;;;;10452761;28;20032;-83
2023/07/06 18:41:38;;;;;;;8.32;3.90;;;;;;;;;;10450055;28;20033;-82
2023/07/06 18:46:39;;;;;;;5.38;3.78;;;;;;;;;;10445971;28;20033;-82
2023/07/06 18:51:40;;;;;;;4.85;3.22;;;;;;;;;;10447355;28;20511;-83
2023/07/06 18:56:41;;;;;;;8.13;4.00;;;;;;;;;;10453610;28;20039;-82
2023/07/06 19:01:42;;;;;;;7.20;3.75;;;;;;;;;;10453221;28;20037;-82
2023/07/06 19:06:43;;;;;;;5.32;3.22;;;;;;;;;;10452170;28;20032;-82
2023/07/06 19:11:44;;;;;;;7.03;3.63;;;;;;;;;;10457538;28;20524;-82
2023/07/06 19:16:54;;;;;;;6.85;3.97;;;;;;;;;;10452238;28;20025;-82
2023/07/06 19:21:55;;;;;;;6.35;4.38;;;;;;;;;;10453555;28;20056;-82
2023/07/06 19:26:56;;;;;;;10.00;4.70;;;;;;;;;;10452200;28;20515;-82
2023/07/06 19:31:57;;;;;;;7.70;5.20;;;;;;;;;;10452122;28;20048;-81
2023/07/06 19:36:58;;;;;;;9.75;4.90;;;;;;;;;;10451483;28;20041;-81
2023/07/06 19:41:59;;;;;;;7.97;4.95;;;;;;;;;;10451525;28;20040;-81
2023/07/06 19:47:00;;;;;;;8.32;4.72;;;;;;;;;;10452413;28;20044;-82
2023/07/06 19:52:01;;;;;;;7.38;4.63;;;;;;;;;;10450772;28;20033;-82
2023/07/06 19:57:02;;;;;;;7.15;4.72;;;;;;;;;;10451520;28;20679;-81
2023/07/06 20:02:03;;;;;;;6.47;4.35;;;;;;;;;;10451070;28;20052;-82
2023/07/06 20:07:05;;;;;;;7.55;4.82;;;;;;;;;;10449790;28;20029;-82
2023/07/06 20:12:06;;;;;;;8.20;4.80;;;;;;;;;;10448758;28;20376;-83
2023/07/06 20:17:07;;;;;;;8.63;5.00;;;;;;;;;;10451705;28;20423;-81
2023/07/06 20:22:09;;;;;;;8.43;4.80;;;;;;;;;;10450299;28;20094;-81
2023/07/06 20:27:10;;;;;;;6.13;4.57;;;;;;;;;;10450714;28;20068;-82
2023/07/06 20:32:13;;;;;;;7.40;4.47;;;;;;;;;;10450040;28;20427;-81
2023/07/06 20:37:14;;;;;;;9.82;5.43;;;;;;;;;;10450527;28;20112;-82
2023/07/06 20:42:15;;;;;;;9.65;5.50;;;;;;;;;;10449028;28;20393;-81
2023/07/06 20:47:16;;;;;;;15.00;6.63;;;;;;;;;;10449742;28;20036;-83
2023/07/06 20:52:17;;;;;;;11.23;6.28;;;;;;;;;;10448960;28;20113;-82
2023/07/06 20:57:18;;;;;;;9.70;6.18;;;;;;;;;;10449043;28;20654;-82
2023/07/06 21:02:21;;;;;;;11.07;6.60;;;;;;;;;;10441077;28;20085;-82
2023/07/06 21:07:22;;;;;;;9.65;6.32;;;;;;;;;;10448767;28;20039;-82
2023/07/06 21:12:23;;;;;;;9.95;5.95;;;;;;;;;;10448087;28;20139;-82
2023/07/06 21:17:24;;;;;;;8.93;6.65;;;;;;;;;;10446511;28;20051;-82
2023/07/06 21:22:25;;;;;;;11.45;6.32;;;;;;;;;;10447452;28;20045;-81
2023/07/06 21:27:26;;;;;;;13.60;8.77;;;;;;;;;;10448035;28;20078;-81
2023/07/06 21:32:27;;;;;;;17.08;10.85;;;;;;;;;;10447513;28;20013;-81
2023/07/06 21:37:28;;;;;;;18.42;10.65;;;;;;;;;;10448990;28;20079;-81
2023/07/06 21:42:29;;;;;;;12.38;8.02;;;;;;;;;;10448289;28;20386;-81
2023/07/06 21:47:30;;;;;;;13.30;6.90;;;;;;;;;;10449314;28;20036;-81
2023/07/06 21:52:31;;;;;;;11.73;5.47;;;;;;;;;;10448047;28;20039;-81
2023/07/06 21:57:32;;;;;;;12.30;6.25;;;;;;;;;;10447904;28;20025;-82
2023/07/06 22:02:33;;;;;;;12.98;6.90;;;;;;;;;;10447496;28;20037;-81
2023/07/06 22:07:34;;;;;;;14.77;6.95;;;;;;;;;;10434313;28;20468;-81
2023/07/06 22:12:35;;;;;;;14.50;7.38;;;;;;;;;;10446069;28;20037;-81
2023/07/06 22:17:36;;;;;;;13.00;6.78;;;;;;;;;;10447540;28;20032;-82
2023/07/06 22:22:37;;;;;;;12.15;6.22;;;;;;;;;;10446237;28;20421;-82
2023/07/06 22:27:38;;;;;;;12.48;6.30;;;;;;;;;;10451265;28;20029;-81
2023/07/06 22:32:40;;;;;;;15.55;6.32;;;;;;;;;;10455373;28;20392;-81
2023/07/06 22:37:41;;;;;;;12.85;6.43;;;;;;;;;;10453480;28;20065;-82
2023/07/06 22:42:42;;;;;;;12.63;6.30;;;;;;;;;;10454805;28;20041;-81
2023/07/06 22:47:43;;;;;;;9.95;6.28;;;;;;;;;;10454614;28;20033;-81
2023/07/06 22:52:44;;;;;;;15.52;8.90;;;;;;;;;;10453580;28;20029;-81
2023/07/06 22:57:45;;;;;;;14.88;9.20;;;;;;;;;;10450270;28;20032;-82
2023/07/06 23:02:47;;;;;;;18.30;9.70;;;;;;;;;;10454072;28;20045;-82
2023/07/06 23:07:48;;;;;;;15.00;9.00;;;;;;;;;;10452935;28;20052;-79
2023/07/06 23:12:49;;;;;;;14.68;8.77;;;;;;;;;;10453683;28;20037;-80
2023/07/06 23:17:51;;;;;;;15.68;7.90;;;;;;;;;;10452760;28;20809;-80
2023/07/06 23:22:52;;;;;;;10.25;6.88;;;;;;;;;;10451760;28;20435;-81
2023/07/06 23:28:04;;;;;;;10.95;7.00;;;;;;;;;;10445316;28;20033;-82
2023/07/06 23:33:08;;;;;;;14.82;8.00;;;;;;;;;;10450945;28;20037;-81
2023/07/06 23:38:11;;;;;;;14.07;6.87;;;;;;;;;;10447391;28;20231;-82
2023/07/06 23:43:12;;;;;;;13.93;8.48;;;;;;;;;;10451533;28;20111;-82
2023/07/06 23:48:15;;;;;;;17.10;8.90;;;;;;;;;;10440141;28;20546;-81
2023/07/06 23:53:16;;;;;;;16.42;9.25;;;;;;;;;;10450108;28;20123;-81
2023/07/06 23:58:17;;;;;;;15.40;8.95;;;;;;;;;;10449184;28;20032;-81
